Time;durP1;ratioP1;P1;durP2;ratioP2;P2;SDS_P1;SDS_P2;PMS_P1;PMS_P2;Temp;Humidity;BMP_temperature;BMP_pressure;BME280_temperature;BME280_humidity;BME280_pressure;Samples;Min_cycle;Max_cycle;Signal;HPM_P1;HPM_P2
2023/09/13 00:00:03;;;;;;;0.32;0.32;;;;;;;15.15;100.00;100299.38;7394633;19;20085;-89
2023/09/13 00:02:40;;;;;;;0.20;0.10;;;;;;;15.03;100.00;100300.53;7393990;19;20007;-88
2023/09/13 00:05:07;;;;;;;0.17;0.17;;;;;;;14.94;100.00;100298.66;7393178;19;20015;-89
2023/09/13 00:07:33;;;;;;;0.30;0.30;;;;;;;14.86;100.00;100299.59;7393946;19;20023;-88
2023/09/13 00:10:00;;;;;;;0.20;0.20;;;;;;;14.81;100.00;100301.06;7394754;19;20022;-88
2023/09/13 00:12:26;;;;;;;0.30;0.30;;;;;;;14.76;100.00;100310.22;7391206;19;20006;-89
2023/09/13 00:14:52;;;;;;;0.30;0.30;;;;;;;14.67;100.00;100310.34;7398223;19;20026;-87
2023/09/13 00:17:20;;;;;;;0.10;0.10;;;;;;;15.69;100.00;100306.75;7394467;19;20473;-89
2023/09/13 00:19:46;;;;;;;0.10;0.10;;;;;;;15.83;100.00;100302.25;7393469;19;20010;-89
2023/09/13 00:22:13;;;;;;;0.10;0.10;;;;;;;14.80;100.00;100310.75;7396883;19;20424;-89
2023/09/13 00:24:39;;;;;;;0.10;0.10;;;;;;;14.69;100.00;100309.84;7397566;19;20053;-88
2023/09/13 00:27:05;;;;;;;0.20;0.20;;;;;;;14.59;100.00;100317.66;7391513;19;20022;-88
2023/09/13 00:29:33;;;;;;;0.75;0.75;;;;;;;14.56;100.00;100313.03;7392745;19;20011;-89
2023/09/13 00:32:01;;;;;;;0.10;0.10;;;;;;;14.52;100.00;100318.06;7393451;19;20017;-89
2023/09/13 00:34:27;;;;;;;0.20;0.10;;;;;;;14.46;100.00;100314.44;7396290;19;20029;-88
2023/09/13 00:36:53;;;;;;;0.10;0.10;;;;;;;14.44;100.00;100316.97;7390868;19;20014;-88
2023/09/13 00:39:19;;;;;;;0.22;0.22;;;;;;;14.43;100.00;100309.81;7391648;19;20111;-88
2023/09/13 00:41:45;;;;;;;0.30;0.30;;;;;;;14.29;100.00;100322.63;7393398;19;20015;-89
2023/09/13 00:44:11;;;;;;;0.20;0.20;;;;;;;14.22;100.00;100327.84;7395279;19;20477;-89
2023/09/13 00:46:38;;;;;;;0.10;0.10;;;;;;;14.20;100.00;100319.16;7392715;19;20021;-88
2023/09/13 00:49:06;;;;;;;0.93;0.32;;;;;;;24.26;100.00;100314.88;7395204;19;20586;-89
2023/09/13 00:51:33;;;;;;;1.65;0.35;;;;;;;29.69;55.26;100300.91;7392327;19;20049;-90
2023/09/13 00:54:04;;;;;;;0.65;0.35;;;;;;;22.49;76.97;100311.34;7392954;19;20019;-90
2023/09/13 00:56:32;;;;;;;0.10;0.10;;;;;;;16.74;100.00;100322.63;7391524;19;20078;-89
2023/09/13 00:58:58;;;;;;;1.65;0.45;;;;;;;33.77;47.53;100290.84;7393337;19;20035;-90
2023/09/13 01:01:27;;;;;;;0.35;0.35;;;;;;;35.82;40.11;100286.81;7391113;19;20026;-90
2023/09/13 01:03:55;;;;;;;1.00;0.35;;;;;;;36.41;37.16;100292.13;7394339;19;20338;-89
2023/09/13 01:06:21;;;;;;;0.30;0.30;;;;;;;36.83;36.13;100272.44;7391348;19;20066;-90
2023/09/13 01:08:48;;;;;;;0.10;0.10;;;;;;;37.08;34.94;100281.69;7392439;19;20023;-90
2023/09/13 01:11:14;;;;;;;0.73;0.25;;;;;;;34.64;37.01;100293.22;7392125;19;20019;-90
2023/09/13 01:13:40;;;;;;;2.47;0.30;;;;;;;37.12;34.07;100287.69;7391808;19;20018;-90
2023/09/13 01:16:41;;;;;;;0.13;0.13;;;;;;;37.72;32.25;100289.81;7391356;19;20465;-88
2023/09/13 01:19:19;;;;;;;0.65;0.65;;;;;;;38.03;31.97;100294.09;7391116;19;20011;-90
2023/09/13 01:22:14;;;;;;;0.17;0.17;;;;;;;38.05;31.23;100294.94;7395162;19;20514;-90
2023/09/13 01:25:11;;;;;;;0.20;0.20;;;;;;;37.99;30.83;100288.84;7389773;19;20421;-90
2023/09/13 01:27:54;;;;;;;0.13;0.13;;;;;;;38.24;30.05;100285.59;7392178;19;20030;-90
2023/09/13 01:30:22;;;;;;;0.20;0.20;;;;;;;38.25;29.53;100286.38;7391445;19;20373;-90
2023/09/13 01:32:51;;;;;;;0.20;0.20;;;;;;;38.27;29.74;100284.28;7390104;19;20010;-90
2023/09/13 01:35:17;;;;;;;0.22;0.20;;;;;;;38.05;29.52;100274.59;7390261;19;20026;-92
2023/09/13 01:37:44;;;;;;;0.20;0.20;;;;;;;38.28;29.09;100279.97;7390001;19;20014;-92
2023/09/13 01:40:10;;;;;;;0.28;0.28;;;;;;;38.34;29.03;100274.41;7394613;19;20014;-91
2023/09/13 01:42:38;;;;;;;0.30;0.30;;;;;;;38.45;28.60;100276.31;7399005;19;20093;-91
2023/09/13 01:45:09;;;;;;;0.20;0.20;;;;;;;38.42;28.24;100274.72;7394188;19;20519;-91
2023/09/13 01:47:40;;;;;;;0.10;0.10;;;;;;;38.30;28.47;100271.31;7394628;19;20042;-91
2023/09/13 01:50:08;;;;;;;0.20;0.20;;;;;;;38.21;28.21;100281.09;7397112;19;20015;-91
2023/09/13 01:52:35;;;;;;;0.40;0.40;;;;;;;38.19;28.20;100278.09;7402282;19;20010;-91
2023/09/13 01:55:05;;;;;;;1.33;0.30;;;;;;;38.06;28.21;100276.06;7403856;19;20022;-91
2023/09/13 01:57:32;;;;;;;0.10;0.10;;;;;;;38.11;28.12;100286.47;7396004;19;20026;-91
2023/09/13 01:59:58;;;;;;;0.32;0.32;;;;;;;37.86;28.04;100292.63;7397532;19;20019;-91
2023/09/13 02:02:24;;;;;;;0.28;0.28;;;;;;;37.78;28.14;100295.13;7397438;19;20051;-91
2023/09/13 02:04:50;;;;;;;0.10;0.10;;;;;;;37.89;28.09;100292.06;7396657;19;20011;-91
2023/09/13 02:07:17;;;;;;;0.20;0.20;;;;;;;38.01;27.65;100300.56;7394987;19;20015;-91
2023/09/13 02:09:44;;;;;;;1.13;0.55;;;;;;;38.01;27.46;100300.56;7398528;19;20010;-91
2023/09/13 02:12:12;;;;;;;0.20;0.20;;;;;;;38.02;27.40;100304.97;7395063;19;20026;-91
2023/09/13 02:14:41;;;;;;;0.20;0.20;;;;;;;37.77;27.68;100314.00;7398863;19;20014;-91
2023/09/13 02:17:08;;;;;;;0.10;0.10;;;;;;;37.40;27.62;100317.38;7394125;19;20434;-92
2023/09/13 02:19:37;;;;;;;0.20;0.20;;;;;;;37.24;28.01;100322.41;7396312;19;20026;-91
2023/09/13 02:22:04;;;;;;;0.10;0.10;;;;;;;28.57;nan;100346.22;7402412;19;20024;-91
2023/09/13 02:24:32;;;;;;;9.88;0.50;;;;;;;22.11;nan;100353.34;7397478;19;20010;-91
2023/09/13 02:26:59;;;;;;;1.10;0.57;;;;;;;16.84;nan;100357.69;7396787;19;20099;-91
2023/09/13 02:29:26;;;;;;;3.00;0.43;;;;;;;15.82;nan;100370.91;7398919;19;20103;-91
2023/09/13 02:31:52;;;;;;;0.10;0.10;;;;;;;15.30;nan;100367.38;7396669;19;20038;-91
2023/09/13 02:34:19;;;;;;;4.90;0.98;;;;;;;11.98;nan;100376.59;7394369;19;20073;-91
2023/09/13 02:36:45;;;;;;;0.20;0.20;;;;;;;11.73;nan;100370.66;7394998;19;20022;-92
2023/09/13 02:39:30;;;;;;;0.35;0.35;;;;;;;11.57;nan;100360.59;7398185;19;20018;-92
2023/09/13 02:41:56;;;;;;;0.20;0.20;;;;;;;11.51;nan;100375.66;7398542;19;20026;-91
2023/09/13 02:44:22;;;;;;;0.32;0.32;;;;;;;11.31;nan;100379.72;7398148;19;20049;-91
2023/09/13 02:46:48;;;;;;;0.38;0.38;;;;;;;11.40;nan;100376.16;7395159;19;20010;-91
2023/09/13 02:49:14;;;;;;;0.30;0.20;;;;;;;10.18;nan;100381.09;7400991;19;20052;-92
2023/09/13 02:51:41;;;;;;;0.10;0.10;;;;;;;11.70;nan;100375.16;7398840;19;20014;-91
2023/09/13 02:54:07;;;;;;;0.40;0.40;;;;;;;11.78;nan;100361.66;7396177;19;20026;-92
2023/09/13 02:56:33;;;;;;;0.38;0.38;;;;;;;11.76;nan;100380.88;7396170;19;20034;-91
2023/09/13 02:58:59;;;;;;;0.20;0.20;;;;;;;12.43;nan;100372.00;7396150;19;20081;-92
2023/09/13 03:01:26;;;;;;;0.20;0.20;;;;;;;11.89;nan;100373.84;7396048;19;20010;-88
2023/09/13 03:03:52;;;;;;;1.42;0.60;;;;;;;11.85;nan;100373.25;7397732;19;20073;-91
2023/09/13 03:06:18;;;;;;;2.00;0.43;;;;;;;11.44;nan;100374.75;7396360;19;20060;-91
2023/09/13 03:08:45;;;;;;;0.50;0.30;;;;;;;12.66;nan;100372.00;7396075;19;20019;-91
2023/09/13 03:11:13;;;;;;;1.20;0.63;;;;;;;11.75;nan;100373.75;7395849;19;20040;-91
2023/09/13 03:13:40;;;;;;;0.68;0.38;;;;;;;10.88;nan;100374.53;7394604;19;20010;-91
2023/09/13 03:16:18;;;;;;;0.10;0.10;;;;;;;11.09;nan;100381.94;7394354;19;20041;-91
2023/09/13 03:18:45;;;;;;;0.60;0.60;;;;;;;11.16;nan;100378.84;7395556;19;20022;-91
2023/09/13 03:21:14;;;;;;;0.20;0.20;;;;;;;10.57;nan;100391.38;7397081;19;20006;-92
2023/09/13 03:23:44;;;;;;;0.95;0.52;;;;;;;11.39;nan;100386.53;7395387;19;20525;-91
2023/09/13 03:26:27;;;;;;;0.32;0.32;;;;;;;11.61;nan;100389.09;7394398;19;20030;-91
2023/09/13 03:28:55;;;;;;;0.95;0.68;;;;;;;13.18;nan;100381.66;7394166;19;20014;-92
2023/09/13 03:31:23;;;;;;;0.38;0.22;;;;;;;17.67;nan;100377.59;7398924;19;20015;-92
2023/09/13 03:33:52;;;;;;;0.10;0.10;;;;;;;27.51;nan;100349.97;7395360;19;20018;-91
2023/09/13 03:36:20;;;;;;;0.52;0.50;;;;;;;21.58;nan;100363.81;7393647;19;20018;-91
2023/09/13 03:38:50;;;;;;;4.47;0.75;;;;;;;13.63;nan;100383.22;7395283;19;20014;-91
2023/09/13 03:41:20;;;;;;;0.20;0.20;;;;;;;12.54;nan;100378.59;7392218;19;20014;-92
2023/09/13 03:43:48;;;;;;;0.28;0.28;;;;;;;13.58;nan;100370.66;7395476;19;20049;-92
2023/09/13 03:46:14;;;;;;;0.10;0.10;;;;;;;11.87;nan;100381.91;7389534;19;20022;-91
2023/09/13 03:48:41;;;;;;;0.30;0.30;;;;;;;11.90;nan;100383.78;7392880;19;20078;-92
2023/09/13 03:51:08;;;;;;;0.20;0.20;;;;;;;10.54;nan;100389.53;7392261;19;20215;-91
2023/09/13 03:53:35;;;;;;;0.20;0.20;;;;;;;11.21;nan;100385.78;7387583;19;20011;-93
2023/09/13 03:56:03;;;;;;;0.30;0.30;;;;;;;10.82;nan;100383.97;7392398;19;20022;-92
2023/09/13 03:58:29;;;;;;;0.77;0.45;;;;;;;11.91;nan;100382.50;7389652;19;20501;-92
2023/09/13 04:00:56;;;;;;;0.32;0.32;;;;;;;13.23;nan;100372.59;7394659;19;20066;-92
2023/09/13 04:03:24;;;;;;;0.35;0.35;;;;;;;12.11;nan;100373.56;7393130;19;20034;-92
2023/09/13 04:05:50;;;;;;;0.35;0.35;;;;;;;11.13;nan;100388.13;7393343;19;20035;-92
2023/09/13 04:08:16;;;;;;;1.45;1.00;;;;;;;9.68;nan;100392.63;7398629;19;20014;-92
2023/09/13 04:10:42;;;;;;;0.20;0.20;;;;;;;10.56;nan;100398.19;7394439;19;20014;-92
2023/09/13 04:13:08;;;;;;;0.20;0.20;;;;;;;18.95;nan;100378.81;7392879;19;20022;-92
2023/09/13 04:15:34;;;;;;;1.95;0.32;;;;;;;15.93;nan;100385.81;7393985;19;20018;-92
2023/09/13 04:18:01;;;;;;;0.68;0.52;;;;;;;13.68;nan;100383.31;7393609;19;20026;-89
2023/09/13 04:20:27;;;;;;;6.10;0.55;;;;;;;12.08;nan;100388.50;7397691;19;20090;-91
2023/09/13 04:22:53;;;;;;;0.10;0.10;;;;;;;12.02;nan;100396.72;7393555;19;20042;-91
2023/09/13 04:25:19;;;;;;;0.20;0.20;;;;;;;11.63;nan;100397.78;7392423;19;20018;-91
2023/09/13 04:27:46;;;;;;;0.35;0.35;;;;;;;11.83;nan;100397.28;7392378;19;20042;-90
2023/09/13 04:30:14;;;;;;;0.30;0.30;;;;;;;24.47;nan;100381.09;7393138;19;20051;-91
2023/09/13 04:32:42;;;;;;;0.10;0.10;;;;;;;15.00;nan;100403.28;7392782;19;20019;-91
2023/09/13 04:35:09;;;;;;;0.13;0.13;;;;;;;12.28;nan;100421.44;7392390;19;20018;-91
2023/09/13 04:37:35;;;;;;;0.30;0.30;;;;;;;12.54;nan;100422.53;7392762;19;20015;-91
2023/09/13 04:40:05;;;;;;;0.40;0.35;;;;;;;12.62;nan;100424.50;7392801;19;20034;-91
2023/09/13 04:42:37;;;;;;;0.10;0.10;;;;;;;12.18;nan;100424.28;7394645;19;20306;-91
2023/09/13 04:45:04;;;;;;;0.20;0.20;;;;;;;12.06;nan;100422.44;7393009;19;20015;-91
2023/09/13 04:47:31;;;;;;;0.93;0.47;;;;;;;11.98;nan;100426.84;7391570;19;20465;-90
2023/09/13 04:49:57;;;;;;;0.20;0.20;;;;;;;11.81;nan;100428.44;7392471;19;20012;-91
2023/09/13 04:52:23;;;;;;;0.20;0.20;;;;;;;11.78;nan;100426.59;7397294;19;20749;-91
2023/09/13 04:54:49;;;;;;;0.10;0.10;;;;;;;11.53;nan;100429.72;7394317;19;20015;-91
2023/09/13 04:57:16;;;;;;;0.30;0.30;;;;;;;11.50;nan;100441.06;7390691;19;20050;-91
2023/09/13 04:59:48;;;;;;;0.30;0.30;;;;;;;11.47;nan;100439.97;7392142;19;20022;-91
2023/09/13 05:02:14;;;;;;;0.30;0.30;;;;;;;11.53;nan;100440.91;7391594;19;20078;-90
2023/09/13 05:04:42;;;;;;;0.40;0.40;;;;;;;11.49;nan;100445.88;7390715;19;20042;-91
2023/09/13 05:07:08;;;;;;;0.13;0.13;;;;;;;11.52;nan;100430.22;7393521;19;20615;-92
2023/09/13 05:09:36;;;;;;;0.28;0.28;;;;;;;11.38;nan;100431.63;7391905;19;20157;-91
2023/09/13 05:12:03;;;;;;;0.17;0.17;;;;;;;11.39;nan;100433.94;7393551;19;20007;-91
2023/09/13 05:14:29;;;;;;;0.10;0.10;;;;;;;10.98;nan;100439.41;7394066;19;20014;-90
2023/09/13 05:16:55;;;;;;;0.20;0.20;;;;;;;10.98;nan;100429.00;7398678;19;20010;-91
2023/09/13 05:19:21;;;;;;;0.32;0.32;;;;;;;11.31;nan;100429.16;7401969;19;20018;-91
2023/09/13 05:21:47;;;;;;;0.40;0.40;;;;;;;11.43;nan;100431.00;7403831;19;20468;-91
2023/09/13 05:24:14;;;;;;;1.38;0.45;;;;;;;11.26;nan;100435.38;7397937;19;20029;-91
2023/09/13 05:26:40;;;;;;;0.30;0.30;;;;;;;11.36;nan;100431.31;7398565;19;20094;-91
2023/09/13 05:29:06;;;;;;;0.20;0.20;;;;;;;11.48;nan;100438.72;7399777;19;20011;-91
2023/09/13 05:31:32;;;;;;;0.32;0.32;;;;;;;11.53;nan;100435.31;7402105;19;20077;-91
2023/09/13 05:33:58;;;;;;;0.45;0.45;;;;;;;11.55;nan;100448.78;7396570;19;20023;-91
2023/09/13 05:36:24;;;;;;;0.10;0.10;;;;;;;11.41;nan;100445.41;7397680;19;20464;-91
2023/09/13 05:38:50;;;;;;;0.20;0.20;;;;;;;11.49;nan;100443.06;7398963;19;20039;-91
2023/09/13 05:41:18;;;;;;;0.20;0.20;;;;;;;11.62;nan;100454.03;7398190;19;20015;-91
2023/09/13 05:43:44;;;;;;;0.55;0.55;;;;;;;11.71;nan;100445.69;7402436;19;20077;-91
2023/09/13 05:46:10;;;;;;;2.45;1.08;;;;;;;11.73;nan;100457.94;7397887;19;20010;-91
2023/09/13 05:48:37;;;;;;;7.38;1.95;;;;;;;11.83;nan;100451.06;7402333;19;20431;-91
2023/09/13 05:51:06;;;;;;;8.65;3.55;;;;;;;11.84;nan;100458.22;7399869;19;20015;-90
2023/09/13 05:53:32;;;;;;;8.38;2.55;;;;;;;11.86;nan;100454.94;7395856;19;20022;-91
2023/09/13 05:55:59;;;;;;;2.75;0.95;;;;;;;11.92;nan;100462.22;7398102;19;20018;-91
2023/09/13 05:58:25;;;;;;;0.90;0.90;;;;;;;11.98;nan;100460.34;7399791;19;20102;-91
2023/09/13 06:00:51;;;;;;;5.38;2.42;;;;;;;12.01;nan;100464.97;7397863;19;20037;-91
2023/09/13 06:03:19;;;;;;;4.38;2.53;;;;;;;12.05;nan;100476.75;7398660;19;20034;-91
2023/09/13 06:05:49;;;;;;;17.88;2.85;;;;;;;12.09;nan;100482.94;7399042;19;20054;-91
2023/09/13 06:08:15;;;;;;;3.00;1.00;;;;;;;12.06;nan;100478.28;7397860;19;20018;-91
2023/09/13 06:10:41;;;;;;;5.30;1.77;;;;;;;11.97;nan;100492.31;7398853;19;20607;-91
2023/09/13 06:13:07;;;;;;;9.50;2.50;;;;;;;12.06;nan;100483.13;7396766;19;20014;-92
2023/09/13 06:15:33;;;;;;;2.38;1.60;;;;;;;12.10;nan;100490.09;7401850;19;20023;-91
2023/09/13 06:17:59;;;;;;;1.80;1.67;;;;;;;12.13;nan;100483.53;7398841;19;20078;-91
2023/09/13 06:20:26;;;;;;;5.55;2.13;;;;;;;12.19;nan;100487.22;7397563;19;20385;-91
2023/09/13 06:22:54;;;;;;;1.50;1.35;;;;;;;11.91;nan;100488.56;7397618;19;20436;-91
2023/09/13 06:25:20;;;;;;;1.88;0.80;;;;;;;12.26;nan;100485.38;7399525;19;20019;-91
2023/09/13 06:27:46;;;;;;;1.08;1.00;;;;;;;30.91;nan;100461.31;7396940;19;20334;-91
2023/09/13 06:30:13;;;;;;;0.50;0.50;;;;;;;33.90;nan;100460.00;7400185;19;20022;-91
2023/09/13 06:32:40;;;;;;;0.75;0.75;;;;;;;35.45;nan;100461.56;7396513;19;20015;-91
2023/09/13 06:35:10;;;;;;;1.10;1.02;;;;;;;35.94;nan;100464.31;7399052;19;20014;-91
2023/09/13 06:37:37;;;;;;;0.55;0.55;;;;;;;36.34;nan;100469.47;7399130;19;20018;-91
2023/09/13 06:40:03;;;;;;;3.28;1.33;;;;;;;37.33;nan;100463.03;7398788;19;20014;-91
2023/09/13 06:42:29;;;;;;;1.02;0.88;;;;;;;37.82;nan;100455.31;7396141;19;20079;-91
2023/09/13 06:44:57;;;;;;;5.13;1.70;;;;;;;38.06;nan;100471.00;7398284;19;20019;-91
2023/09/13 06:47:23;;;;;;;1.95;1.10;;;;;;;38.25;nan;100467.53;7393847;19;20022;-91
2023/09/13 06:49:49;;;;;;;1.45;0.55;;;;;;;30.53;nan;100478.47;7400966;19;20022;-91
2023/09/13 06:52:15;;;;;;;0.52;0.43;;;;;;;37.22;nan;100468.34;7401898;19;20021;-91
2023/09/13 06:54:41;;;;;;;3.40;1.48;;;;;;;38.08;nan;100465.25;7394904;19;20014;-91
2023/09/13 06:57:08;;;;;;;0.32;0.25;;;;;;;34.44;nan;100474.28;7395485;19;20014;-90
2023/09/13 06:59:35;;;;;;;2.22;0.75;;;;;;;38.18;nan;100468.66;7396873;19;20540;-91
2023/09/13 07:02:01;;;;;;;3.50;0.50;;;;;;;38.67;nan;100460.72;7396246;19;20014;-91
2023/09/13 07:04:27;;;;;;;0.32;0.32;;;;;;;38.72;nan;100466.75;7396875;19;20018;-91
2023/09/13 07:06:53;;;;;;;2.95;1.50;;;;;;;39.10;nan;100462.56;7393903;19;20461;-91
2023/09/13 07:09:19;;;;;;;1.20;0.85;;;;;;;39.20;nan;100460.13;7396193;19;20018;-90
2023/09/13 07:11:45;;;;;;;0.38;0.38;;;;;;;39.03;nan;100463.75;7397793;19;20045;-91
2023/09/13 07:14:11;;;;;;;4.97;0.32;;;;;;;34.02;nan;100473.13;7396060;19;20025;-91
2023/09/13 07:16:37;;;;;;;1.10;0.85;;;;;;;37.99;nan;100463.38;7400230;19;20038;-91
2023/09/13 07:19:03;;;;;;;0.22;0.22;;;;;;;38.47;nan;100456.91;7395717;19;20572;-91
2023/09/13 07:21:29;;;;;;;0.30;0.30;;;;;;;38.89;nan;100460.22;7398369;19;20041;-91
2023/09/13 07:23:56;;;;;;;0.50;0.50;;;;;;;39.28;nan;100464.13;7397412;19;20382;-91
2023/09/13 07:26:22;;;;;;;0.22;0.22;;;;;;;39.49;nan;100465.69;7399462;19;20037;-91
2023/09/13 07:28:48;;;;;;;0.95;0.40;;;;;;;39.88;nan;100462.91;7396595;19;20349;-91
2023/09/13 07:31:14;;;;;;;0.47;0.20;;;;;;;40.42;nan;100475.22;7396080;19;20021;-91
2023/09/13 07:33:40;;;;;;;0.22;0.22;;;;;;;40.59;nan;100471.47;7393380;19;20023;-91
2023/09/13 07:36:06;;;;;;;0.20;0.17;;;;;;;40.73;nan;100477.81;7393941;19;20011;-88
2023/09/13 07:38:33;;;;;;;0.47;0.40;;;;;;;40.79;nan;100483.88;7389509;19;20074;-87
2023/09/13 07:40:59;;;;;;;0.20;0.20;;;;;;;40.99;nan;100486.78;7393344;19;20342;-87
2023/09/13 07:43:25;;;;;;;0.85;0.20;;;;;;;38.91;nan;100489.44;7390846;19;20018;-87
2023/09/13 07:45:51;;;;;;;0.40;0.22;;;;;;;28.18;nan;100514.84;7395632;19;20010;-87
2023/09/13 07:48:18;;;;;;;3.60;0.68;;;;;;;27.71;nan;100514.91;7398236;19;20472;-87
2023/09/13 07:50:45;;;;;;;6.15;0.57;;;;;;;31.39;nan;100510.25;7398156;19;20039;-86
2023/09/13 07:53:12;;;;;;;0.17;0.13;;;;;;;34.09;nan;100506.81;7391450;19;20051;-87
2023/09/13 07:55:39;;;;;;;0.35;0.35;;;;;;;39.13;nan;100497.00;7394083;19;20066;-87
2023/09/13 07:58:06;;;;;;;1.10;0.75;;;;;;;39.91;nan;100504.59;7393576;19;20023;-86
2023/09/13 08:00:33;;;;;;;0.10;0.00;;;;;;;40.70;nan;100514.22;7393159;19;20375;-86
2023/09/13 08:03:00;;;;;;;0.10;0.10;;;;;;;30.84;nan;100533.34;7394035;19;20356;-86
2023/09/13 08:05:27;;;;;;;0.20;0.20;;;;;;;29.65;nan;100530.28;7395662;19;20026;-86
2023/09/13 08:07:53;;;;;;;1.00;0.70;;;;;;;26.61;nan;100526.19;7393714;19;20030;-86
2023/09/13 08:10:21;;;;;;;0.95;0.45;;;;;;;31.95;nan;100528.09;7392567;19;20015;-86
2023/09/13 08:12:48;;;;;;;0.20;0.20;;;;;;;38.12;nan;100520.72;7391940;19;20026;-87
2023/09/13 08:15:15;;;;;;;1.05;0.57;;;;;;;39.52;nan;100516.84;7394127;19;20025;-87
2023/09/13 08:17:42;;;;;;;0.75;0.70;;;;;;;39.60;nan;100528.88;7392861;19;20495;-87
2023/09/13 08:20:08;;;;;;;6.70;0.32;;;;;;;32.12;nan;100548.09;7394000;19;20034;-87
2023/09/13 08:22:36;;;;;;;0.10;0.00;;;;;;;38.09;nan;100530.78;7397260;19;20017;-87
2023/09/13 08:25:03;;;;;;;0.20;0.10;;;;;;;40.79;nan;100530.63;7394007;19;20050;-86
2023/09/13 08:27:30;;;;;;;0.10;0.10;;;;;;;41.46;nan;100534.53;7390465;19;20027;-86
2023/09/13 08:29:56;;;;;;;0.38;0.32;;;;;;;41.78;nan;100539.97;7391642;19;20018;-87
2023/09/13 08:32:23;;;;;;;1.58;0.10;;;;;;;42.65;nan;100537.53;7391755;19;20042;-86
2023/09/13 08:34:49;;;;;;;0.25;0.25;;;;;;;42.60;nan;100539.63;7393416;19;20092;-87
2023/09/13 08:37:16;;;;;;;1.00;0.20;;;;;;;36.92;nan;100548.13;7391343;19;20380;-87
2023/09/13 08:39:42;;;;;;;0.95;0.47;;;;;;;38.80;nan;100537.00;7393734;19;20042;-87
2023/09/13 08:42:09;;;;;;;0.10;0.00;;;;;;;40.23;nan;100540.91;7393237;19;20029;-87
2023/09/13 08:44:37;;;;;;;0.20;0.20;;;;;;;31.01;nan;100557.03;7391915;19;20465;-87
2023/09/13 08:47:04;;;;;;;1.38;0.20;;;;;;;36.77;nan;100542.94;7390814;19;20022;-87
2023/09/13 08:49:34;;;;;;;0.13;0.10;;;;;;;41.03;nan;100543.22;7395781;19;20073;-87
2023/09/13 08:52:01;;;;;;;1.05;0.20;;;;;;;41.70;nan;100536.75;7396701;19;20015;-87
2023/09/13 08:54:28;;;;;;;0.10;0.10;;;;;;;41.81;nan;100541.53;7389007;19;20476;-87
2023/09/13 08:56:56;;;;;;;0.68;0.10;;;;;;;41.85;nan;100529.94;7389877;19;20026;-87
2023/09/13 08:59:22;;;;;;;0.35;0.30;;;;;;;34.78;nan;100540.06;7392499;19;20018;-87
2023/09/13 09:01:50;;;;;;;1.02;0.65;;;;;;;28.73;nan;100548.28;7392395;19;20015;-87
2023/09/13 09:04:17;;;;;;;0.40;0.35;;;;;;;37.56;nan;100532.50;7393213;19;20029;-87
2023/09/13 09:06:44;;;;;;;1.40;0.10;;;;;;;40.51;nan;100541.28;7389730;19;20029;-88
2023/09/13 09:09:19;;;;;;;1.27;0.20;;;;;;;41.16;nan;100532.69;7391214;19;20021;-89
2023/09/13 09:11:50;;;;;;;1.10;0.28;;;;;;;40.77;nan;100542.25;7392559;19;20022;-88
2023/09/13 09:14:20;;;;;;;0.10;0.10;;;;;;;30.40;nan;100554.38;7389233;19;20393;-88
2023/09/13 09:16:50;;;;;;;0.30;0.10;;;;;;;26.82;nan;100563.16;7389695;19;20010;-88
2023/09/13 09:19:16;;;;;;;0.13;0.13;;;;;;;26.38;nan;100562.53;7390445;19;20480;-88
2023/09/13 09:21:42;;;;;;;0.70;0.30;;;;;;;25.62;nan;100560.78;7393909;19;20021;-87
2023/09/13 09:24:08;;;;;;;0.80;0.30;;;;;;;25.33;nan;100560.03;7392732;19;20006;-93
2023/09/13 09:26:35;;;;;;;0.63;0.30;;;;;;;25.07;nan;100561.00;7395065;19;20556;-90
2023/09/13 09:29:12;;;;;;;7.32;0.43;;;;;;;25.00;nan;100558.88;7393649;19;20049;-88
2023/09/13 09:31:39;;;;;;;0.52;0.22;;;;;;;24.57;nan;100565.16;7391069;19;20504;-88
2023/09/13 09:34:05;;;;;;;0.15;0.15;;;;;;;24.98;nan;100566.44;7389162;19;20011;-88
2023/09/13 09:36:42;;;;;;;0.65;0.65;;;;;;;23.83;nan;100565.84;7394861;19;20018;-88
2023/09/13 09:39:09;;;;;;;0.55;0.55;;;;;;;23.55;nan;100577.06;7390601;19;20030;-87
2023/09/13 09:41:37;;;;;;;0.82;0.35;;;;;;;26.29;nan;100571.69;7392262;19;20018;-86
2023/09/13 09:44:04;;;;;;;0.10;0.00;;;;;;;26.10;nan;100576.94;7389642;19;20450;-87
2023/09/13 09:46:32;;;;;;;1.55;0.30;;;;;;;25.75;nan;100583.47;7393897;19;20041;-88
2023/09/13 09:49:00;;;;;;;0.73;0.45;;;;;;;26.19;nan;100579.25;7393886;19;20465;-86
2023/09/13 09:51:28;;;;;;;0.47;0.22;;;;;;;26.70;nan;100582.00;7392243;19;20015;-89
2023/09/13 09:53:58;;;;;;;0.50;0.10;;;;;;;27.04;nan;100577.47;7388570;19;20022;-88
2023/09/13 09:56:24;;;;;;;0.10;0.10;;;;;;;27.24;nan;100580.66;7393867;19;20082;-88
2023/09/13 09:58:51;;;;;;;6.13;0.40;;;;;;;27.72;nan;100577.28;7391052;19;20014;-88
2023/09/13 10:01:18;;;;;;;8.18;0.63;;;;;;;27.81;nan;100572.31;7394663;19;20045;-87
2023/09/13 10:03:44;;;;;;;0.32;0.10;;;;;;;27.83;nan;100581.09;7397645;19;20015;-88
2023/09/13 10:06:14;;;;;;;0.32;0.20;;;;;;;27.85;nan;100579.19;7399814;19;20021;-88
2023/09/13 10:08:42;;;;;;;2.50;0.30;;;;;;;27.72;nan;100573.69;7396491;19;20031;-87
2023/09/13 10:11:13;;;;;;;9.55;0.20;;;;;;;27.72;nan;100583.03;7396962;19;20014;-87
2023/09/13 10:13:41;;;;;;;0.10;0.10;;;;;;;27.62;nan;100572.75;7396128;19;20047;-87
2023/09/13 10:16:09;;;;;;;0.00;0.00;;;;;;;27.45;nan;100581.22;7399168;19;20029;-87
2023/09/13 10:18:46;;;;;;;0.22;0.08;;;;;;;27.30;nan;100570.53;7397952;19;20015;-87
2023/09/13 10:21:14;;;;;;;0.35;0.35;;;;;;;27.12;nan;100565.22;7396547;19;20015;-88
2023/09/13 10:23:44;;;;;;;0.45;0.20;;;;;;;27.16;nan;100565.63;7396303;19;20025;-88
2023/09/13 10:26:13;;;;;;;0.10;0.10;;;;;;;27.24;nan;100566.38;7400774;19;20018;-87
2023/09/13 10:28:43;;;;;;;0.10;0.10;;;;;;;27.49;nan;100564.41;7398680;19;20028;-87
2023/09/13 10:31:19;;;;;;;0.95;0.30;;;;;;;27.56;nan;100558.69;7397161;19;20018;-87
2023/09/13 10:33:52;;;;;;;0.38;0.10;;;;;;;27.61;nan;100557.69;7394427;19;20487;-88
2023/09/13 10:36:42;;;;;;;0.10;0.10;;;;;;;27.52;nan;100563.25;7399827;19;20484;-87
2023/09/13 10:39:29;;;;;;;0.10;0.00;;;;;;;26.98;nan;100568.28;7395783;19;20038;-86
2023/09/13 10:42:06;;;;;;;2.38;0.20;;;;;;;26.67;nan;100569.63;7395970;19;20019;-88
2023/09/13 10:44:35;;;;;;;0.40;0.30;;;;;;;26.53;nan;100568.28;7395241;19;20015;-88
2023/09/13 10:47:03;;;;;;;0.55;0.55;;;;;;;26.53;nan;100553.97;7395373;19;20018;-88
2023/09/13 10:49:30;;;;;;;4.47;0.30;;;;;;;26.39;nan;100557.59;7401542;19;20025;-88
2023/09/13 10:51:58;;;;;;;0.30;0.15;;;;;;;25.91;nan;100553.66;7396559;19;20011;-88
2023/09/13 10:54:26;;;;;;;0.10;0.00;;;;;;;25.08;nan;100553.22;7394639;19;20444;-88
2023/09/13 10:56:53;;;;;;;0.10;0.00;;;;;;;25.09;nan;100557.59;7394837;19;20373;-89
2023/09/13 10:59:21;;;;;;;0.40;0.22;;;;;;;25.08;nan;100553.97;7399837;19;20020;-89
2023/09/13 11:01:48;;;;;;;0.65;0.20;;;;;;;24.97;nan;100557.13;7396471;19;20014;-89
2023/09/13 11:04:22;;;;;;;0.32;0.30;;;;;;;25.11;nan;100550.00;7395075;19;20056;-87
2023/09/13 11:06:53;;;;;;;1.83;0.17;;;;;;;26.39;nan;100555.50;7394236;19;20015;-87
2023/09/13 11:09:27;;;;;;;1.35;0.45;;;;;;;26.45;nan;100558.94;7395670;19;20014;-88
2023/09/13 11:11:55;;;;;;;1.20;0.30;;;;;;;26.48;nan;100563.53;7398685;19;20022;-88
2023/09/13 11:14:29;;;;;;;4.85;0.40;;;;;;;26.57;nan;100565.81;7393924;19;20019;-87
2023/09/13 11:17:07;;;;;;;0.20;0.10;;;;;;;26.40;nan;100554.16;7394454;19;20015;-87
2023/09/13 11:19:33;;;;;;;0.52;0.10;;;;;;;25.73;nan;100564.03;7395657;19;20014;-87
2023/09/13 11:22:06;;;;;;;0.10;0.10;;;;;;;25.54;nan;100570.06;7393762;19;20111;-87
2023/09/13 11:24:41;;;;;;;0.63;0.10;;;;;;;25.24;nan;100567.00;7396255;19;20023;-86
2023/09/13 11:27:17;;;;;;;0.30;0.22;;;;;;;25.14;nan;100568.09;7392342;19;20006;-86
2023/09/13 11:29:46;;;;;;;0.20;0.10;;;;;;;24.94;nan;100571.75;7396714;19;20014;-86
2023/09/13 11:32:20;;;;;;;5.38;0.32;;;;;;;24.86;nan;100554.59;7394560;19;20031;-87
2023/09/13 11:34:58;;;;;;;0.10;0.10;;;;;;;24.77;nan;100560.78;7392511;19;20022;-86
2023/09/13 11:37:25;;;;;;;0.85;0.22;;;;;;;24.41;nan;100557.78;7391954;19;20322;-87
2023/09/13 11:39:55;;;;;;;0.20;0.10;;;;;;;24.00;nan;100549.94;7393895;19;20067;-87